Terminal Aerodrome Forecast
Issued by NWS Sterling, VA

Current Version | Previous Version | Graphics & Text | Print | Product List | Glossary On
Versions: 1 2 3 4 5 6 7 8 9 10 11 12 13 14 15 16 17 18 19 20 21 22 23
000
FTUS41 KLWX 251100
TAFDCA
TAF
KDCA 251136Z 2512/2612 31005KT P6SM SCT035 BKN200
     FM251500 31005KT P6SM BKN200
     FM260800 01006KT P6SM OVC040
     FM260900 02007KT P6SM -RA OVC040=

USA.gov is the U.S. government's official web portal to all federal, state and local government web resources and services.